createdAt,value
2022-08-28T00:01:45.395Z,80.29
2022-08-28T00:06:59.138Z,80.02
2022-08-28T00:11:52.034Z,80.49
2022-08-28T00:16:51.973Z,80.12
2022-08-28T00:21:51.903Z,81.03
2022-08-28T00:26:51.893Z,80.83
2022-08-28T00:31:51.788Z,79.32
2022-08-28T00:36:51.703Z,78.91
2022-08-28T00:41:51.646Z,79.02
2022-08-28T00:46:52.638Z,79.02
2022-08-28T00:51:51.499Z,78.81
2022-08-28T00:56:51.468Z,79.08
2022-08-28T01:01:51.397Z,77.70
2022-08-28T01:06:51.315Z,78.38
2022-08-28T01:11:51.261Z,77.57
2022-08-28T01:16:51.173Z,77.37
2022-08-28T01:21:51.098Z,76.67
2022-08-28T01:26:51.093Z,76.46
2022-08-28T01:31:50.971Z,75.96
2022-08-28T01:36:50.953Z,75.86
2022-08-28T01:41:50.850Z,75.26
2022-08-28T01:46:50.766Z,75.46
2022-08-28T01:51:51.290Z,75.35
2022-08-28T01:56:51.347Z,75.35
2022-08-28T02:01:50.686Z,75.56
2022-08-28T02:06:50.529Z,75.15
2022-08-28T02:11:50.480Z,75.35
2022-08-28T02:16:50.395Z,75.46
2022-08-28T02:21:50.324Z,75.35
2022-08-28T02:26:50.249Z,75.66
2022-08-28T02:31:50.168Z,75.56
2022-08-28T02:36:50.136Z,75.66
2022-08-28T02:41:50.073Z,75.56
2022-08-28T02:46:49.978Z,75.66
2022-08-28T02:51:49.911Z,75.66
2022-08-28T02:56:49.848Z,76.06
2022-08-28T03:01:49.836Z,75.26
2022-08-28T03:06:49.754Z,75.46
2022-08-28T03:11:49.750Z,75.26
2022-08-28T03:16:49.649Z,75.46
2022-08-28T03:21:49.511Z,75.26
2022-08-28T03:26:49.576Z,75.29
2022-08-28T03:31:49.389Z,75.39
2022-08-28T03:36:49.342Z,75.29
2022-08-28T03:41:49.234Z,74.99
2022-08-28T03:46:49.189Z,75.29
2022-08-28T03:51:49.109Z,75.19
2022-08-28T03:56:49.047Z,75.09
2022-08-28T04:01:49.159Z,75.09
2022-08-28T04:06:48.919Z,74.99
2022-08-28T04:11:48.891Z,75.29
2022-08-28T04:16:48.879Z,75.19
2022-08-28T04:21:48.722Z,75.39
2022-08-28T04:26:48.641Z,75.43
2022-08-28T04:31:48.593Z,75.29
2022-08-28T04:36:48.545Z,75.53
2022-08-28T04:41:48.438Z,75.63
2022-08-28T04:46:48.446Z,75.73
2022-08-28T04:51:48.346Z,75.73
2022-08-28T04:56:48.253Z,75.93
2022-08-28T05:01:48.194Z,75.93
2022-08-28T05:06:48.114Z,76.14
2022-08-28T05:11:48.044Z,76.03
2022-08-28T05:16:47.976Z,76.23
2022-08-28T05:21:47.910Z,75.90
2022-08-28T05:26:48.126Z,75.70
2022-08-28T05:31:47.890Z,75.49
2022-08-28T05:36:47.736Z,75.29
2022-08-28T05:41:47.640Z,75.29
2022-08-28T05:46:47.628Z,75.05
2022-08-28T05:51:47.505Z,74.95
2022-08-28T05:56:47.434Z,74.65
2022-08-28T06:02:06.390Z,74.55
2022-08-28T06:06:58.761Z,74.35
2022-08-28T06:11:58.707Z,74.21
2022-08-28T06:16:58.693Z,72.97
2022-08-28T06:21:58.596Z,73.07
2022-08-28T06:26:58.779Z,72.64
2022-08-28T06:31:58.614Z,72.03
2022-08-28T06:36:58.389Z,71.43
2022-08-28T06:41:58.330Z,69.09
2022-08-28T06:46:58.269Z,65.78
2022-08-28T06:51:58.186Z,63.69
2022-08-28T06:56:58.118Z,61.15
2022-08-28T07:01:58.133Z,58.97
2022-08-28T07:06:57.973Z,57.19
2022-08-28T07:11:57.933Z,55.12
2022-08-28T07:16:57.876Z,53.61
2022-08-28T07:21:57.775Z,53.28
2022-08-28T07:26:57.701Z,51.70
2022-08-28T07:31:57.641Z,50.81
2022-08-28T07:36:57.583Z,49.47
2022-08-28T07:41:57.523Z,48.11
2022-08-28T07:46:57.466Z,47.57
2022-08-28T07:51:57.467Z,46.12
2022-08-28T07:56:57.317Z,45.83
2022-08-28T08:01:57.337Z,44.11
2022-08-28T08:06:58.176Z,42.89
2022-08-28T08:11:57.164Z,48.14
2022-08-28T08:16:57.094Z,43.30
2022-08-28T08:21:57.829Z,42.28
2022-08-28T08:26:59.537Z,41.14
2022-08-28T08:31:56.882Z,39.19
2022-08-28T08:36:56.803Z,39.09
2022-08-28T08:41:56.774Z,39.78
2022-08-28T08:46:57.833Z,38.47
2022-08-28T08:51:56.614Z,37.27
2022-08-28T08:56:56.571Z,42.91
2022-08-28T09:01:56.529Z,43.88
2022-08-28T09:06:56.465Z,38.92
2022-08-28T09:11:57.157Z,36.33
2022-08-28T09:16:56.286Z,34.38
2022-08-28T09:21:56.232Z,39.50
2022-08-28T09:26:56.185Z,45.21
2022-08-28T09:31:56.117Z,45.03
2022-08-28T09:36:56.029Z,38.37
2022-08-28T09:41:55.972Z,35.04
2022-08-28T09:46:55.936Z,41.17
2022-08-28T09:51:55.905Z,36.19
2022-08-28T09:56:55.980Z,36.06
2022-08-28T10:01:55.775Z,35.44
2022-08-28T10:06:55.646Z,39.37
2022-08-28T10:11:55.650Z,42.07
2022-08-28T10:16:55.495Z,38.19
2022-08-28T10:21:55.490Z,34.75
2022-08-28T10:26:55.394Z,36.18
2022-08-28T10:31:55.521Z,34.36
2022-08-28T10:36:55.261Z,30.78
2022-08-28T10:41:55.221Z,30.68
2022-08-28T10:46:55.280Z,29.78
2022-08-28T10:51:55.073Z,29.53
2022-08-28T10:56:56.552Z,29.14
2022-08-28T11:01:55.019Z,29.50
2022-08-28T11:06:54.885Z,29.29
2022-08-28T11:11:58.410Z,29.03
2022-08-28T11:16:55.853Z,30.13
2022-08-28T11:21:54.697Z,30.52
2022-08-28T11:26:54.655Z,29.52
2022-08-28T11:31:54.714Z,29.17
2022-08-28T11:36:54.566Z,29.93
2022-08-28T11:41:54.453Z,30.08
2022-08-28T11:46:54.382Z,30.27
2022-08-28T11:51:54.338Z,30.74
2022-08-28T11:56:54.235Z,29.86
2022-08-28T12:01:54.191Z,28.59
2022-08-28T12:06:54.139Z,29.60
2022-08-28T12:11:54.101Z,30.94
2022-08-28T12:16:54.025Z,31.26
2022-08-28T12:21:53.939Z,30.87
2022-08-28T12:26:53.870Z,32.19
2022-08-28T12:31:53.833Z,31.18
2022-08-28T12:36:53.790Z,28.99
2022-08-28T12:41:53.684Z,31.76
2022-08-28T12:46:53.627Z,30.88
2022-08-28T12:51:53.565Z,30.00
2022-08-28T12:56:53.519Z,31.02
2022-08-28T13:01:53.536Z,31.73
2022-08-28T13:06:53.372Z,31.51
2022-08-28T13:11:53.311Z,32.87
2022-08-28T13:16:53.269Z,32.84
2022-08-28T13:21:53.210Z,32.48
2022-08-28T13:26:53.116Z,33.29
2022-08-28T13:31:53.070Z,34.51
2022-08-28T13:36:52.991Z,33.87
2022-08-28T13:41:52.956Z,34.17
2022-08-28T13:46:52.865Z,34.33
2022-08-28T13:51:52.801Z,33.82
2022-08-28T13:56:52.721Z,32.93
2022-08-28T14:01:52.770Z,34.27
2022-08-28T14:06:52.585Z,34.27
2022-08-28T14:11:52.534Z,34.48
2022-08-28T14:16:52.537Z,33.87
2022-08-28T14:21:52.412Z,34.28
2022-08-28T14:26:52.339Z,33.79
2022-08-28T14:31:52.325Z,33.09
2022-08-28T14:36:52.289Z,32.70
2022-08-28T14:41:52.213Z,33.46
2022-08-28T14:46:52.087Z,33.06
2022-08-28T14:51:52.044Z,33.97
2022-08-28T14:56:51.956Z,33.87
2022-08-28T15:01:51.891Z,35.27
2022-08-28T15:06:51.830Z,36.06
2022-08-28T15:11:51.823Z,37.16
2022-08-28T15:16:51.956Z,36.77
2022-08-28T15:21:51.654Z,37.48
2022-08-28T15:26:51.571Z,36.80
2022-08-28T15:31:51.546Z,36.52
2022-08-28T15:36:54.633Z,37.13
2022-08-28T15:41:51.386Z,37.81
2022-08-28T15:46:51.282Z,37.43
2022-08-28T15:51:51.241Z,38.32
2022-08-28T15:56:52.787Z,38.15
2022-08-28T16:01:51.177Z,39.25
2022-08-28T16:06:56.544Z,39.04
2022-08-28T16:11:51.979Z,39.14
2022-08-28T16:16:51.077Z,38.94
2022-08-28T16:21:50.832Z,39.28
2022-08-28T16:26:50.753Z,39.47
2022-08-28T16:31:50.754Z,40.17
2022-08-28T16:36:50.641Z,39.98
2022-08-28T16:41:50.581Z,40.19
2022-08-28T16:46:50.564Z,40.09
2022-08-28T16:51:50.456Z,40.41
2022-08-28T16:56:50.386Z,40.60
2022-08-28T17:01:52.859Z,40.64
2022-08-28T17:06:50.265Z,40.56
2022-08-28T17:11:52.390Z,40.56
2022-08-28T17:16:50.171Z,41.28
2022-08-28T17:21:50.063Z,41.67
2022-08-28T17:26:50.049Z,41.69
2022-08-28T17:31:49.971Z,42.51
2022-08-28T17:36:49.979Z,43.30
2022-08-28T17:41:49.792Z,43.63
2022-08-28T17:46:49.775Z,45.14
2022-08-28T17:51:49.765Z,46.04
2022-08-28T17:56:49.681Z,45.09
2022-08-28T18:01:49.609Z,46.68
2022-08-28T18:06:49.494Z,47.71
2022-08-28T18:11:49.399Z,47.53
2022-08-28T18:16:49.406Z,47.75
2022-08-28T18:21:49.278Z,48.57
2022-08-28T18:26:49.200Z,49.29
2022-08-28T18:31:49.197Z,49.82
2022-08-28T18:36:49.133Z,51.02
2022-08-28T18:41:49.051Z,51.94
2022-08-28T18:46:49.084Z,52.97
2022-08-28T18:51:48.869Z,52.89
2022-08-28T18:56:49.626Z,53.42
2022-08-28T19:01:48.895Z,52.72
2022-08-28T19:06:48.684Z,52.12
2022-08-28T19:11:48.578Z,52.32
2022-08-28T19:16:48.526Z,52.24
2022-08-28T19:21:48.476Z,52.04
2022-08-28T19:26:48.470Z,51.84
2022-08-28T19:31:48.334Z,52.14
2022-08-28T19:36:48.278Z,52.24
2022-08-28T19:41:48.277Z,51.97
2022-08-28T19:46:48.173Z,52.26
2022-08-28T19:51:48.109Z,52.26
2022-08-28T19:56:48.160Z,51.97
2022-08-28T20:01:47.981Z,52.57
2022-08-28T20:06:48.223Z,52.67
2022-08-28T20:11:47.852Z,52.59
2022-08-28T20:16:47.738Z,53.00
2022-08-28T20:21:47.665Z,53.00
2022-08-28T20:26:47.615Z,53.09
2022-08-28T20:31:47.582Z,53.22
2022-08-28T20:36:47.450Z,54.02
2022-08-28T20:41:47.419Z,53.95
2022-08-28T20:46:51.348Z,53.95
2022-08-28T20:51:47.274Z,54.35
2022-08-28T20:56:47.207Z,54.28
2022-08-28T21:01:47.203Z,54.17
2022-08-28T21:06:47.064Z,54.38
2022-08-28T21:11:47.022Z,54.68
2022-08-28T21:16:46.959Z,54.91
2022-08-28T21:21:46.894Z,55.00
2022-08-28T21:26:46.821Z,55.21
2022-08-28T21:31:46.744Z,55.54
2022-08-28T21:36:50.096Z,55.23
2022-08-28T21:41:46.640Z,55.33
2022-08-28T21:46:46.557Z,55.43
2022-08-28T21:51:46.456Z,55.54
2022-08-28T21:56:46.401Z,55.66
2022-08-28T22:01:46.401Z,55.76
2022-08-28T22:06:46.281Z,55.87
2022-08-28T22:11:46.223Z,56.07
2022-08-28T22:16:46.197Z,56.09
2022-08-28T22:21:46.091Z,56.29
2022-08-28T22:26:46.014Z,56.29
2022-08-28T22:31:46.386Z,56.40
2022-08-28T22:36:45.884Z,56.82
2022-08-28T22:41:45.817Z,56.92
2022-08-28T22:46:45.753Z,57.12
2022-08-28T22:51:45.701Z,57.23
2022-08-28T22:56:45.615Z,57.23
2022-08-28T23:01:45.573Z,57.76
2022-08-28T23:06:45.464Z,57.86
2022-08-28T23:11:45.427Z,58.16
2022-08-28T23:16:45.404Z,58.06
2022-08-28T23:21:45.289Z,58.56
2022-08-28T23:26:45.238Z,58.36
2022-08-28T23:31:45.454Z,58.16
2022-08-28T23:36:45.096Z,59.00
2022-08-28T23:41:44.994Z,59.20
2022-08-28T23:46:44.953Z,59.53
2022-08-28T23:51:44.899Z,59.83
2022-08-28T23:56:44.819Z,60.57
